createdAt,value
2023-02-27T00:00:24.203Z,0.30
2023-02-27T00:04:28.588Z,0.38
2023-02-27T00:08:33.228Z,0.30
2023-02-27T00:12:38.190Z,0.30
2023-02-27T00:16:42.488Z,0.35
2023-02-27T00:20:45.920Z,0.30
2023-02-27T00:24:49.351Z,0.40
2023-02-27T00:28:52.930Z,0.20
2023-02-27T00:32:56.679Z,0.65
2023-02-27T00:37:00.220Z,0.30
2023-02-27T00:41:04.185Z,0.20
2023-02-27T00:45:08.206Z,0.35
2023-02-27T00:49:11.642Z,0.57
2023-02-27T00:53:15.321Z,0.30
2023-02-27T00:57:19.133Z,0.30
2023-02-27T01:01:22.812Z,0.30
2023-02-27T01:05:27.392Z,0.28
2023-02-27T01:09:30.835Z,0.40
2023-02-27T01:13:34.286Z,0.30
2023-02-27T01:17:37.762Z,0.65
2023-02-27T01:21:42.414Z,0.30
2023-02-27T01:25:48.079Z,0.95
2023-02-27T01:29:51.556Z,0.60
2023-02-27T01:33:55.015Z,0.38
2023-02-27T01:37:58.455Z,0.68
2023-02-27T01:42:02.803Z,0.32
2023-02-27T01:46:07.100Z,0.50
2023-02-27T01:50:12.214Z,0.30
2023-02-27T01:54:20.750Z,0.30
2023-02-27T01:58:25.158Z,0.70
2023-02-27T02:02:37.846Z,0.77
2023-02-27T02:06:45.860Z,0.98
2023-02-27T02:10:52.125Z,0.85
2023-02-27T02:14:55.556Z,0.40
2023-02-27T02:19:02.137Z,0.30
2023-02-27T02:27:59.811Z,0.40
2023-02-27T02:32:13.083Z,0.22
2023-02-27T02:36:19.316Z,0.60
2023-02-27T02:40:45.506Z,0.40
2023-02-27T02:45:17.082Z,0.35
2023-02-27T02:49:51.974Z,0.35
2023-02-27T02:54:17.112Z,0.35
2023-02-27T02:58:35.941Z,0.20
2023-02-27T03:02:53.792Z,0.30
2023-02-27T03:07:33.827Z,0.40
2023-02-27T03:11:43.615Z,0.30
2023-02-27T03:16:15.452Z,0.30
2023-02-27T03:20:25.658Z,0.30
2023-02-27T03:24:42.076Z,0.20
2023-02-27T03:28:59.616Z,0.28
2023-02-27T03:33:11.405Z,0.30
2023-02-27T03:37:27.671Z,0.20
2023-02-27T03:41:47.825Z,0.30
2023-02-27T03:46:13.231Z,0.30
2023-02-27T03:50:17.860Z,0.30
2023-02-27T03:54:41.725Z,0.25
2023-02-27T03:58:45.820Z,0.28
2023-02-27T04:02:54.832Z,0.25
2023-02-27T04:07:43.067Z,0.30
2023-02-27T04:12:19.503Z,0.30
2023-02-27T04:16:52.961Z,0.30
2023-02-27T04:21:23.083Z,0.30
2023-02-27T04:25:54.928Z,0.77
2023-02-27T04:30:26.232Z,0.30
2023-02-27T04:34:42.643Z,0.30
2023-02-27T04:39:11.859Z,0.50
2023-02-27T04:43:16.789Z,0.22
2023-02-27T04:47:25.837Z,0.30
2023-02-27T04:51:52.174Z,0.40
2023-02-27T04:56:02.716Z,0.20
2023-02-27T05:00:10.126Z,0.40
2023-02-27T05:04:19.785Z,0.20
2023-02-27T05:08:33.734Z,0.30
2023-02-27T05:12:46.570Z,0.22
2023-02-27T05:16:54.480Z,0.30
2023-02-27T05:21:25.015Z,0.20
2023-02-27T05:25:49.416Z,0.35
2023-02-27T05:29:56.732Z,0.30
2023-02-27T05:34:12.513Z,0.30
2023-02-27T05:38:27.992Z,0.43
2023-02-27T05:42:41.310Z,0.43
2023-02-27T05:46:57.325Z,0.45
2023-02-27T05:51:01.704Z,0.30
2023-02-27T05:55:24.340Z,0.90
2023-02-27T05:59:51.996Z,0.60
2023-02-27T06:03:55.831Z,0.55
2023-02-27T06:07:59.366Z,0.47
2023-02-27T06:12:02.922Z,0.35
2023-02-27T06:16:10.181Z,0.30
2023-02-27T06:20:14.059Z,0.40
2023-02-27T06:24:17.900Z,0.30
2023-02-27T06:28:21.308Z,0.43
2023-02-27T06:32:25.973Z,0.85
2023-02-27T06:36:30.334Z,0.50
2023-02-27T06:40:34.722Z,0.63
2023-02-27T06:44:38.112Z,0.30
2023-02-27T06:48:42.414Z,0.30
2023-02-27T06:52:45.923Z,0.30
2023-02-27T06:56:50.644Z,0.75
2023-02-27T07:00:54.098Z,0.63
2023-02-27T07:04:57.921Z,0.57
2023-02-27T07:09:06.922Z,0.73
2023-02-27T07:13:10.621Z,1.23
2023-02-27T07:17:14.003Z,0.50
2023-02-27T07:21:17.485Z,1.48
2023-02-27T07:25:20.878Z,6.82
2023-02-27T07:29:24.448Z,5.20
2023-02-27T07:33:28.051Z,13.43
2023-02-27T07:37:31.511Z,15.73
2023-02-27T07:41:35.321Z,37.72
2023-02-27T07:45:41.654Z,19.00
2023-02-27T07:49:47.707Z,24.40
2023-02-27T07:53:51.193Z,14.13
2023-02-27T07:57:54.622Z,9.73
2023-02-27T08:01:58.328Z,7.85
2023-02-27T08:06:02.498Z,8.57
2023-02-27T08:10:06.952Z,5.90
2023-02-27T08:14:10.432Z,6.95
2023-02-27T08:18:13.797Z,4.40
2023-02-27T08:22:17.646Z,5.03
2023-02-27T08:26:21.701Z,2.72
2023-02-27T08:30:25.386Z,2.17
2023-02-27T08:34:30.615Z,2.85
2023-02-27T08:38:34.107Z,1.90
2023-02-27T08:42:39.518Z,1.25
2023-02-27T08:46:42.932Z,1.17
2023-02-27T08:50:47.106Z,0.82
2023-02-27T08:54:50.610Z,1.00
2023-02-27T08:58:55.854Z,0.68
2023-02-27T09:03:00.252Z,1.63
2023-02-27T09:07:03.920Z,0.30
2023-02-27T09:11:09.232Z,0.88
2023-02-27T09:15:12.899Z,0.40
2023-02-27T09:19:16.735Z,0.73
2023-02-27T09:23:20.690Z,0.65
2023-02-27T09:27:24.224Z,0.52
2023-02-27T09:31:32.826Z,0.50
2023-02-27T09:35:37.424Z,0.73
2023-02-27T09:39:43.549Z,0.40
2023-02-27T09:43:51.777Z,0.57
2023-02-27T09:47:59.837Z,0.40
2023-02-27T09:52:03.530Z,0.55
2023-02-27T09:56:09.050Z,0.47
2023-02-27T10:00:40.153Z,0.40
2023-02-27T10:05:12.667Z,0.30
2023-02-27T10:09:48.339Z,0.47
2023-02-27T10:14:08.743Z,0.90
2023-02-27T10:18:28.941Z,0.85
2023-02-27T10:22:38.060Z,0.93
2023-02-27T10:26:44.272Z,1.35
2023-02-27T10:30:53.402Z,0.83
2023-02-27T10:35:22.985Z,2.17
2023-02-27T10:39:28.252Z,14.45
2023-02-27T10:43:31.923Z,3.58
2023-02-27T10:47:35.414Z,1.73
2023-02-27T10:51:38.948Z,0.82
2023-02-27T10:55:44.695Z,0.95
2023-02-27T11:00:06.365Z,0.52
2023-02-27T11:04:11.093Z,0.35
2023-02-27T11:08:25.444Z,0.60
2023-02-27T11:12:32.547Z,0.45
2023-02-27T11:16:51.342Z,0.30
2023-02-27T11:21:15.831Z,0.30
2023-02-27T11:25:24.695Z,0.40
2023-02-27T11:29:29.157Z,0.95
2023-02-27T11:33:48.954Z,0.50
2023-02-27T11:37:54.442Z,1.88
2023-02-27T11:42:06.110Z,1.33
2023-02-27T11:46:46.302Z,1.60
2023-02-27T11:51:12.604Z,1.02
2023-02-27T11:55:19.858Z,1.75
2023-02-27T11:59:34.476Z,1.30
2023-02-27T12:03:50.681Z,0.82
2023-02-27T12:08:06.370Z,1.08
2023-02-27T12:12:47.209Z,1.45
2023-02-27T12:17:04.940Z,0.52
2023-02-27T12:21:28.757Z,0.60
2023-02-27T12:25:44.268Z,0.65
2023-02-27T12:30:02.987Z,1.80
2023-02-27T12:34:29.559Z,1.15
2023-02-27T12:38:36.622Z,0.90
2023-02-27T12:43:08.942Z,0.77
2023-02-27T12:47:32.838Z,0.93
2023-02-27T12:52:21.118Z,0.90
2023-02-27T12:56:31.082Z,0.75
2023-02-27T13:00:48.574Z,1.63
2023-02-27T13:05:18.446Z,0.70
2023-02-27T13:09:31.835Z,1.08
2023-02-27T13:13:44.828Z,0.50
2023-02-27T13:18:09.984Z,0.88
2023-02-27T13:22:36.239Z,0.40
2023-02-27T13:26:45.564Z,1.77
2023-02-27T13:31:19.893Z,0.82
2023-02-27T13:35:29.017Z,1.45
2023-02-27T13:39:41.543Z,1.10
2023-02-27T13:43:52.210Z,1.15
2023-02-27T13:47:57.009Z,0.68
2023-02-27T13:52:02.484Z,3.63
2023-02-27T13:56:24.167Z,0.73
2023-02-27T14:00:30.513Z,0.70
2023-02-27T14:04:39.761Z,0.50
2023-02-27T14:08:50.503Z,1.50
2023-02-27T14:12:54.567Z,0.98
2023-02-27T14:16:59.149Z,1.30
2023-02-27T14:21:02.840Z,0.93
2023-02-27T14:25:22.221Z,0.50
2023-02-27T14:29:31.462Z,0.98
2023-02-27T14:33:50.864Z,0.50
2023-02-27T14:37:55.742Z,0.77
2023-02-27T14:42:24.702Z,1.17
2023-02-27T14:46:39.574Z,1.38
2023-02-27T14:50:43.978Z,1.45
2023-02-27T14:54:48.762Z,2.45
2023-02-27T14:59:03.629Z,1.38
2023-02-27T15:03:12.808Z,1.42
2023-02-27T15:07:24.876Z,1.00
2023-02-27T15:11:28.769Z,1.23
2023-02-27T15:15:33.118Z,1.98
2023-02-27T15:19:37.594Z,2.28
2023-02-27T15:23:41.291Z,1.60
2023-02-27T15:27:44.790Z,0.95
2023-02-27T15:31:48.289Z,2.33
2023-02-27T15:35:52.305Z,2.10
2023-02-27T15:39:56.413Z,2.20
2023-02-27T15:44:00.438Z,2.78
2023-02-27T15:48:05.092Z,2.42
2023-02-27T15:52:21.380Z,1.55
2023-02-27T15:56:31.851Z,2.03
2023-02-27T16:00:36.262Z,2.25
2023-02-27T16:04:39.735Z,2.28
2023-02-27T16:08:48.423Z,2.00
2023-02-27T16:12:52.027Z,2.28
2023-02-27T16:16:56.191Z,2.75
2023-02-27T16:21:11.476Z,2.05
2023-02-27T16:25:20.508Z,2.53
2023-02-27T16:29:31.639Z,1.55
2023-02-27T16:33:37.058Z,1.42
2023-02-27T16:37:43.403Z,2.58
2023-02-27T16:41:47.666Z,2.10
2023-02-27T16:45:52.339Z,1.63
2023-02-27T16:49:55.760Z,2.63
2023-02-27T16:54:00.279Z,6.45
2023-02-27T16:58:03.860Z,4.07
2023-02-27T17:02:13.492Z,2.95
2023-02-27T17:06:17.616Z,2.35
2023-02-27T17:10:24.760Z,4.40
2023-02-27T17:14:28.228Z,4.20
2023-02-27T17:18:32.281Z,2.47
2023-02-27T17:22:40.969Z,2.03
2023-02-27T17:26:44.675Z,4.65
2023-02-27T17:30:48.532Z,3.58
2023-02-27T17:34:56.348Z,2.88
2023-02-27T17:39:02.076Z,7.57
2023-02-27T17:43:05.969Z,10.30
2023-02-27T17:47:09.719Z,5.03
2023-02-27T17:51:15.457Z,4.43
2023-02-27T17:55:19.266Z,2.75
2023-02-27T17:59:23.007Z,4.32
2023-02-27T18:03:26.515Z,6.78
2023-02-27T18:07:32.221Z,3.22
2023-02-27T18:11:37.731Z,3.03
2023-02-27T18:15:42.323Z,3.47
2023-02-27T18:19:47.066Z,4.07
2023-02-27T18:23:52.308Z,5.55
2023-02-27T18:27:57.586Z,3.17
2023-02-27T18:32:01.764Z,4.50
2023-02-27T18:36:06.475Z,3.33
2023-02-27T18:40:35.992Z,2.22
2023-02-27T18:44:41.670Z,2.60
2023-02-27T18:48:46.896Z,2.10
2023-02-27T18:52:52.657Z,3.88
2023-02-27T18:56:57.657Z,3.25
2023-02-27T19:01:02.199Z,28.27
2023-02-27T19:05:06.581Z,5.57
2023-02-27T19:09:16.409Z,6.75
2023-02-27T19:13:19.781Z,5.88
2023-02-27T19:17:23.341Z,4.38
2023-02-27T19:21:27.493Z,4.90
2023-02-27T19:25:31.017Z,3.55
2023-02-27T19:29:34.677Z,2.55
2023-02-27T19:33:38.634Z,7.80
2023-02-27T19:37:42.518Z,3.28
2023-02-27T19:41:46.210Z,4.18
2023-02-27T19:45:49.713Z,5.45
2023-02-27T19:49:53.447Z,3.35
2023-02-27T19:53:57.238Z,3.05
2023-02-27T19:58:01.798Z,3.75
2023-02-27T20:02:05.314Z,3.25
2023-02-27T20:06:16.991Z,6.13
2023-02-27T20:10:20.621Z,5.22
2023-02-27T20:14:24.319Z,3.80
2023-02-27T20:18:30.051Z,4.18
2023-02-27T20:22:34.578Z,4.80
2023-02-27T20:26:40.921Z,6.28
2023-02-27T20:30:46.755Z,4.38
2023-02-27T20:34:51.390Z,3.15
2023-02-27T20:38:54.938Z,3.72
2023-02-27T20:43:00.205Z,4.63
2023-02-27T20:47:04.915Z,7.80
2023-02-27T20:51:14.244Z,3.20
2023-02-27T20:55:17.628Z,7.18
2023-02-27T20:59:24.287Z,4.00
2023-02-27T21:03:36.257Z,5.75
2023-02-27T21:07:42.229Z,4.82
2023-02-27T21:11:46.344Z,4.00
2023-02-27T21:15:51.541Z,3.50
2023-02-27T21:19:55.765Z,7.00
2023-02-27T21:24:01.341Z,4.20
2023-02-27T21:28:05.048Z,1.85
2023-02-27T21:32:09.004Z,1.50
2023-02-27T21:36:13.846Z,2.50
2023-02-27T21:40:18.277Z,8.23
2023-02-27T21:44:26.868Z,2.40
2023-02-27T21:48:30.381Z,3.25
2023-02-27T21:52:34.059Z,2.40
2023-02-27T21:56:38.250Z,3.47
2023-02-27T22:00:43.380Z,2.60
2023-02-27T22:04:47.055Z,2.35
2023-02-27T22:08:57.073Z,3.03
2023-02-27T22:13:00.578Z,3.25
2023-02-27T22:17:03.970Z,2.60
2023-02-27T22:21:19.154Z,2.90
2023-02-27T22:25:22.521Z,4.10
2023-02-27T22:29:26.839Z,2.40
2023-02-27T22:33:31.679Z,2.65
2023-02-27T22:37:35.231Z,1.95
2023-02-27T22:41:40.814Z,1.88
2023-02-27T22:45:48.298Z,2.75
2023-02-27T22:49:52.132Z,2.83
2023-02-27T22:53:57.395Z,1.73
2023-02-27T23:02:06.541Z,2.15
2023-02-27T23:06:13.264Z,2.50
2023-02-27T23:10:16.922Z,2.25
2023-02-27T23:14:21.811Z,1.40
2023-02-27T23:18:25.332Z,2.13
2023-02-27T23:22:33.681Z,2.60
2023-02-27T23:26:42.120Z,2.22
2023-02-27T23:30:46.065Z,1.77
2023-02-27T23:34:51.142Z,3.63
2023-02-27T23:38:54.549Z,3.42
2023-02-27T23:42:58.163Z,3.40
2023-02-27T23:47:02.476Z,2.65
2023-02-27T23:51:08.218Z,2.90
2023-02-27T23:55:11.660Z,3.75
2023-02-27T23:59:15.380Z,2.47
